sensor_id;sensor_type;location;lat;lon;timestamp;P1;durP1;ratioP1;P2;durP2;ratioP2
19111;SDS011;9688;51.906;8.376;2023-12-20T00:00:28;18.67;;;9.93;;
19111;SDS011;9688;51.906;8.376;2023-12-20T00:03:13;14.37;;;9.07;;
19111;SDS011;9688;51.906;8.376;2023-12-20T00:06:00;16.63;;;9.50;;
19111;SDS011;9688;51.906;8.376;2023-12-20T00:08:46;16.03;;;9.07;;
19111;SDS011;9688;51.906;8.376;2023-12-20T00:11:31;11.40;;;7.93;;
19111;SDS011;9688;51.906;8.376;2023-12-20T00:14:17;17.77;;;9.50;;
19111;SDS011;9688;51.906;8.376;2023-12-20T00:17:04;15.63;;;8.77;;
19111;SDS011;9688;51.906;8.376;2023-12-20T00:19:49;15.27;;;8.93;;
19111;SDS011;9688;51.906;8.376;2023-12-20T00:22:36;14.87;;;8.07;;
19111;SDS011;9688;51.906;8.376;2023-12-20T00:25:22;13.70;;;8.03;;
19111;SDS011;9688;51.906;8.376;2023-12-20T00:28:08;12.83;;;7.43;;
19111;SDS011;9688;51.906;8.376;2023-12-20T00:30:53;14.33;;;7.47;;
19111;SDS011;9688;51.906;8.376;2023-12-20T00:33:39;12.97;;;7.70;;
19111;SDS011;9688;51.906;8.376;2023-12-20T00:36:27;15.33;;;8.13;;
19111;SDS011;9688;51.906;8.376;2023-12-20T00:39:14;12.63;;;7.17;;
19111;SDS011;9688;51.906;8.376;2023-12-20T00:41:59;12.87;;;7.03;;
19111;SDS011;9688;51.906;8.376;2023-12-20T00:44:45;15.47;;;6.93;;
19111;SDS011;9688;51.906;8.376;2023-12-20T00:47:31;12.00;;;5.97;;
19111;SDS011;9688;51.906;8.376;2023-12-20T00:50:16;10.90;;;6.10;;
19111;SDS011;9688;51.906;8.376;2023-12-20T00:53:02;13.17;;;5.47;;
19111;SDS011;9688;51.906;8.376;2023-12-20T00:55:50;10.53;;;5.93;;
19111;SDS011;9688;51.906;8.376;2023-12-20T00:58:36;8.87;;;4.60;;
19111;SDS011;9688;51.906;8.376;2023-12-20T01:01:22;10.30;;;5.00;;
19111;SDS011;9688;51.906;8.376;2023-12-20T01:04:08;9.00;;;4.27;;
19111;SDS011;9688;51.906;8.376;2023-12-20T01:06:53;6.70;;;3.70;;
19111;SDS011;9688;51.906;8.376;2023-12-20T01:09:39;8.53;;;3.87;;
19111;SDS011;9688;51.906;8.376;2023-12-20T01:12:26;5.53;;;3.73;;
19111;SDS011;9688;51.906;8.376;2023-12-20T01:15:12;7.00;;;3.43;;
19111;SDS011;9688;51.906;8.376;2023-12-20T01:17:58;7.67;;;3.40;;
19111;SDS011;9688;51.906;8.376;2023-12-20T01:20:43;8.07;;;3.67;;
19111;SDS011;9688;51.906;8.376;2023-12-20T01:23:29;8.40;;;3.00;;
19111;SDS011;9688;51.906;8.376;2023-12-20T01:26:15;5.83;;;3.10;;
19111;SDS011;9688;51.906;8.376;2023-12-20T01:29:02;7.60;;;3.10;;
19111;SDS011;9688;51.906;8.376;2023-12-20T01:31:48;5.97;;;2.93;;
19111;SDS011;9688;51.906;8.376;2023-12-20T01:34:34;6.83;;;3.00;;
19111;SDS011;9688;51.906;8.376;2023-12-20T01:37:20;7.73;;;3.53;;
19111;SDS011;9688;51.906;8.376;2023-12-20T01:40:08;11.63;;;3.30;;
19111;SDS011;9688;51.906;8.376;2023-12-20T01:42:58;10.37;;;3.30;;
19111;SDS011;9688;51.906;8.376;2023-12-20T01:45:45;7.73;;;2.97;;
19111;SDS011;9688;51.906;8.376;2023-12-20T01:48:31;13.17;;;2.80;;
19111;SDS011;9688;51.906;8.376;2023-12-20T01:51:17;5.77;;;3.30;;
19111;SDS011;9688;51.906;8.376;2023-12-20T01:54:04;13.57;;;3.30;;
19111;SDS011;9688;51.906;8.376;2023-12-20T01:56:49;9.63;;;3.10;;
19111;SDS011;9688;51.906;8.376;2023-12-20T01:59:37;6.10;;;3.27;;
19111;SDS011;9688;51.906;8.376;2023-12-20T02:02:26;7.67;;;3.00;;
19111;SDS011;9688;51.906;8.376;2023-12-20T02:05:14;11.20;;;2.97;;
19111;SDS011;9688;51.906;8.376;2023-12-20T02:08:00;8.80;;;3.00;;
19111;SDS011;9688;51.906;8.376;2023-12-20T02:10:45;6.40;;;3.03;;
19111;SDS011;9688;51.906;8.376;2023-12-20T02:13:31;10.03;;;3.00;;
19111;SDS011;9688;51.906;8.376;2023-12-20T02:16:17;5.80;;;2.97;;
19111;SDS011;9688;51.906;8.376;2023-12-20T02:19:05;16.00;;;4.23;;
19111;SDS011;9688;51.906;8.376;2023-12-20T02:22:06;6.73;;;3.37;;
19111;SDS011;9688;51.906;8.376;2023-12-20T02:24:53;8.27;;;3.40;;
19111;SDS011;9688;51.906;8.376;2023-12-20T02:27:38;11.43;;;3.30;;
19111;SDS011;9688;51.906;8.376;2023-12-20T02:30:25;9.83;;;3.77;;
19111;SDS011;9688;51.906;8.376;2023-12-20T02:33:11;14.13;;;4.07;;
19111;SDS011;9688;51.906;8.376;2023-12-20T02:35:59;8.33;;;4.27;;
19111;SDS011;9688;51.906;8.376;2023-12-20T02:38:46;11.27;;;4.10;;
19111;SDS011;9688;51.906;8.376;2023-12-20T02:41:32;11.30;;;4.07;;
19111;SDS011;9688;51.906;8.376;2023-12-20T02:44:17;12.40;;;4.40;;
19111;SDS011;9688;51.906;8.376;2023-12-20T02:47:03;12.77;;;4.33;;
19111;SDS011;9688;51.906;8.376;2023-12-20T02:49:49;11.93;;;4.70;;
19111;SDS011;9688;51.906;8.376;2023-12-20T02:52:37;12.60;;;5.13;;
19111;SDS011;9688;51.906;8.376;2023-12-20T02:55:24;12.63;;;5.03;;
19111;SDS011;9688;51.906;8.376;2023-12-20T02:58:09;11.53;;;5.50;;
19111;SDS011;9688;51.906;8.376;2023-12-20T03:00:55;12.70;;;5.70;;
19111;SDS011;9688;51.906;8.376;2023-12-20T03:03:40;16.53;;;5.70;;
19111;SDS011;9688;51.906;8.376;2023-12-20T03:06:26;10.27;;;5.80;;
19111;SDS011;9688;51.906;8.376;2023-12-20T03:09:12;14.97;;;5.53;;
19111;SDS011;9688;51.906;8.376;2023-12-20T03:11:59;25.53;;;7.20;;
19111;SDS011;9688;51.906;8.376;2023-12-20T03:14:45;15.43;;;6.27;;
19111;SDS011;9688;51.906;8.376;2023-12-20T03:17:30;12.97;;;6.43;;
19111;SDS011;9688;51.906;8.376;2023-12-20T03:20:16;10.17;;;5.63;;
19111;SDS011;9688;51.906;8.376;2023-12-20T03:23:02;17.47;;;5.80;;
19111;SDS011;9688;51.906;8.376;2023-12-20T03:25:48;13.97;;;6.30;;
19111;SDS011;9688;51.906;8.376;2023-12-20T03:28:36;16.60;;;6.07;;
19111;SDS011;9688;51.906;8.376;2023-12-20T03:31:21;17.17;;;6.13;;
19111;SDS011;9688;51.906;8.376;2023-12-20T03:34:07;23.97;;;6.13;;
19111;SDS011;9688;51.906;8.376;2023-12-20T03:36:53;14.87;;;5.73;;
19111;SDS011;9688;51.906;8.376;2023-12-20T03:39:38;23.90;;;5.93;;
19111;SDS011;9688;51.906;8.376;2023-12-20T03:42:24;13.50;;;5.67;;
19111;SDS011;9688;51.906;8.376;2023-12-20T03:45:11;18.60;;;5.67;;
19111;SDS011;9688;51.906;8.376;2023-12-20T03:47:57;17.43;;;6.03;;
19111;SDS011;9688;51.906;8.376;2023-12-20T03:50:43;20.07;;;5.40;;
19111;SDS011;9688;51.906;8.376;2023-12-20T03:53:28;19.07;;;5.80;;
19111;SDS011;9688;51.906;8.376;2023-12-20T03:56:14;16.93;;;5.20;;
19111;SDS011;9688;51.906;8.376;2023-12-20T03:59:00;14.90;;;5.53;;
19111;SDS011;9688;51.906;8.376;2023-12-20T04:01:47;18.23;;;5.40;;
19111;SDS011;9688;51.906;8.376;2023-12-20T04:04:33;11.60;;;5.30;;
19111;SDS011;9688;51.906;8.376;2023-12-20T04:07:19;13.43;;;4.87;;
19111;SDS011;9688;51.906;8.376;2023-12-20T04:10:06;16.63;;;4.80;;
19111;SDS011;9688;51.906;8.376;2023-12-20T04:12:54;11.67;;;5.00;;
19111;SDS011;9688;51.906;8.376;2023-12-20T04:15:40;20.50;;;5.57;;
19111;SDS011;9688;51.906;8.376;2023-12-20T04:18:27;17.80;;;5.03;;
19111;SDS011;9688;51.906;8.376;2023-12-20T04:21:12;15.10;;;4.70;;
19111;SDS011;9688;51.906;8.376;2023-12-20T04:23:59;14.10;;;5.47;;
19111;SDS011;9688;51.906;8.376;2023-12-20T04:26:44;18.33;;;4.40;;
19111;SDS011;9688;51.906;8.376;2023-12-20T04:29:30;13.20;;;4.60;;
19111;SDS011;9688;51.906;8.376;2023-12-20T04:32:16;12.37;;;4.70;;
19111;SDS011;9688;51.906;8.376;2023-12-20T04:35:03;13.17;;;4.70;;
19111;SDS011;9688;51.906;8.376;2023-12-20T04:37:49;18.17;;;4.73;;
19111;SDS011;9688;51.906;8.376;2023-12-20T04:40:35;11.77;;;4.23;;
19111;SDS011;9688;51.906;8.376;2023-12-20T04:43:20;15.70;;;4.60;;
19111;SDS011;9688;51.906;8.376;2023-12-20T04:46:06;16.90;;;4.33;;
19111;SDS011;9688;51.906;8.376;2023-12-20T04:48:52;13.77;;;4.17;;
19111;SDS011;9688;51.906;8.376;2023-12-20T04:51:39;9.13;;;4.07;;
19111;SDS011;9688;51.906;8.376;2023-12-20T04:54:25;17.13;;;4.30;;
19111;SDS011;9688;51.906;8.376;2023-12-20T04:57:10;15.57;;;5.00;;
19111;SDS011;9688;51.906;8.376;2023-12-20T04:59:56;16.07;;;4.47;;
19111;SDS011;9688;51.906;8.376;2023-12-20T05:02:42;13.90;;;4.63;;
19111;SDS011;9688;51.906;8.376;2023-12-20T05:05:28;16.77;;;4.63;;
19111;SDS011;9688;51.906;8.376;2023-12-20T05:08:15;14.67;;;4.33;;
19111;SDS011;9688;51.906;8.376;2023-12-20T05:11:01;15.63;;;4.27;;
19111;SDS011;9688;51.906;8.376;2023-12-20T05:13:50;13.27;;;4.47;;
19111;SDS011;9688;51.906;8.376;2023-12-20T05:16:35;19.37;;;4.13;;
19111;SDS011;9688;51.906;8.376;2023-12-20T05:19:21;19.07;;;4.33;;
19111;SDS011;9688;51.906;8.376;2023-12-20T05:22:06;13.03;;;4.30;;
19111;SDS011;9688;51.906;8.376;2023-12-20T05:24:54;18.30;;;4.77;;
19111;SDS011;9688;51.906;8.376;2023-12-20T05:27:40;22.47;;;5.30;;
19111;SDS011;9688;51.906;8.376;2023-12-20T05:30:25;8.57;;;4.83;;
19111;SDS011;9688;51.906;8.376;2023-12-20T05:33:10;16.43;;;4.83;;
19111;SDS011;9688;51.906;8.376;2023-12-20T05:35:58;14.30;;;4.57;;
19111;SDS011;9688;51.906;8.376;2023-12-20T05:38:44;18.03;;;5.37;;
19111;SDS011;9688;51.906;8.376;2023-12-20T05:41:31;22.53;;;5.63;;
19111;SDS011;9688;51.906;8.376;2023-12-20T05:44:17;19.33;;;5.60;;
19111;SDS011;9688;51.906;8.376;2023-12-20T05:47:03;17.33;;;5.10;;
19111;SDS011;9688;51.906;8.376;2023-12-20T05:49:49;19.23;;;5.60;;
19111;SDS011;9688;51.906;8.376;2023-12-20T05:52:35;17.90;;;5.73;;
19111;SDS011;9688;51.906;8.376;2023-12-20T05:55:20;23.20;;;6.60;;
19111;SDS011;9688;51.906;8.376;2023-12-20T05:58:08;24.87;;;6.70;;
19111;SDS011;9688;51.906;8.376;2023-12-20T06:00:53;16.80;;;5.70;;
19111;SDS011;9688;51.906;8.376;2023-12-20T06:03:41;18.53;;;5.83;;
19111;SDS011;9688;51.906;8.376;2023-12-20T06:06:26;19.50;;;5.67;;
19111;SDS011;9688;51.906;8.376;2023-12-20T06:09:12;18.33;;;5.73;;
19111;SDS011;9688;51.906;8.376;2023-12-20T06:11:59;18.17;;;5.57;;
19111;SDS011;9688;51.906;8.376;2023-12-20T06:14:46;21.53;;;6.40;;
19111;SDS011;9688;51.906;8.376;2023-12-20T06:17:32;14.20;;;5.23;;
19111;SDS011;9688;51.906;8.376;2023-12-20T06:20:18;19.80;;;5.63;;
19111;SDS011;9688;51.906;8.376;2023-12-20T06:23:04;21.87;;;5.67;;
19111;SDS011;9688;51.906;8.376;2023-12-20T06:25:50;19.70;;;6.23;;
19111;SDS011;9688;51.906;8.376;2023-12-20T06:28:36;20.07;;;5.70;;
19111;SDS011;9688;51.906;8.376;2023-12-20T06:31:24;25.53;;;6.03;;
19111;SDS011;9688;51.906;8.376;2023-12-20T06:34:09;15.40;;;5.50;;
19111;SDS011;9688;51.906;8.376;2023-12-20T06:36:55;17.23;;;5.27;;
19111;SDS011;9688;51.906;8.376;2023-12-20T06:39:41;13.97;;;5.40;;
19111;SDS011;9688;51.906;8.376;2023-12-20T06:42:27;20.87;;;6.37;;
19111;SDS011;9688;51.906;8.376;2023-12-20T06:45:12;21.07;;;6.23;;
19111;SDS011;9688;51.906;8.376;2023-12-20T06:48:00;20.93;;;5.30;;
19111;SDS011;9688;51.906;8.376;2023-12-20T06:50:46;16.10;;;5.60;;
19111;SDS011;9688;51.906;8.376;2023-12-20T06:53:32;19.90;;;5.20;;
19111;SDS011;9688;51.906;8.376;2023-12-20T06:56:18;20.97;;;6.23;;
19111;SDS011;9688;51.906;8.376;2023-12-20T06:59:03;15.37;;;5.10;;
19111;SDS011;9688;51.906;8.376;2023-12-20T07:01:50;17.57;;;6.23;;
19111;SDS011;9688;51.906;8.376;2023-12-20T07:04:40;25.70;;;6.43;;
19111;SDS011;9688;51.906;8.376;2023-12-20T07:07:26;18.50;;;5.47;;
19111;SDS011;9688;51.906;8.376;2023-12-20T07:10:12;25.00;;;5.53;;
19111;SDS011;9688;51.906;8.376;2023-12-20T07:12:58;19.00;;;4.90;;
19111;SDS011;9688;51.906;8.376;2023-12-20T07:15:44;13.87;;;5.10;;
19111;SDS011;9688;51.906;8.376;2023-12-20T07:18:30;19.60;;;4.87;;
19111;SDS011;9688;51.906;8.376;2023-12-20T07:21:17;13.47;;;4.90;;
19111;SDS011;9688;51.906;8.376;2023-12-20T07:24:03;22.10;;;5.50;;
19111;SDS011;9688;51.906;8.376;2023-12-20T07:26:49;19.93;;;4.80;;
19111;SDS011;9688;51.906;8.376;2023-12-20T07:29:36;19.27;;;4.73;;
19111;SDS011;9688;51.906;8.376;2023-12-20T07:32:22;15.23;;;4.93;;
19111;SDS011;9688;51.906;8.376;2023-12-20T07:35:10;12.20;;;4.37;;
19111;SDS011;9688;51.906;8.376;2023-12-20T07:37:58;13.17;;;5.07;;
19111;SDS011;9688;51.906;8.376;2023-12-20T07:40:43;18.47;;;4.83;;
19111;SDS011;9688;51.906;8.376;2023-12-20T07:43:29;18.30;;;4.80;;
19111;SDS011;9688;51.906;8.376;2023-12-20T07:46:15;20.10;;;5.40;;
19111;SDS011;9688;51.906;8.376;2023-12-20T07:49:02;13.87;;;5.00;;
19111;SDS011;9688;51.906;8.376;2023-12-20T07:51:48;20.63;;;5.50;;
19111;SDS011;9688;51.906;8.376;2023-12-20T07:54:35;14.33;;;4.50;;
19111;SDS011;9688;51.906;8.376;2023-12-20T07:57:21;13.60;;;6.10;;
19111;SDS011;9688;51.906;8.376;2023-12-20T08:00:08;16.83;;;6.10;;
19111;SDS011;9688;51.906;8.376;2023-12-20T08:02:54;18.77;;;6.23;;
19111;SDS011;9688;51.906;8.376;2023-12-20T08:05:40;12.97;;;5.27;;
19111;SDS011;9688;51.906;8.376;2023-12-20T08:08:26;17.97;;;6.30;;
19111;SDS011;9688;51.906;8.376;2023-12-20T08:11:20;16.93;;;5.47;;
19111;SDS011;9688;51.906;8.376;2023-12-20T08:14:06;21.13;;;6.93;;
19111;SDS011;9688;51.906;8.376;2023-12-20T08:16:53;19.20;;;5.17;;
19111;SDS011;9688;51.906;8.376;2023-12-20T08:19:39;21.60;;;5.57;;
19111;SDS011;9688;51.906;8.376;2023-12-20T08:22:25;12.97;;;4.37;;
19111;SDS011;9688;51.906;8.376;2023-12-20T08:25:11;20.40;;;4.87;;
19111;SDS011;9688;51.906;8.376;2023-12-20T08:27:59;15.87;;;5.33;;
19111;SDS011;9688;51.906;8.376;2023-12-20T08:30:44;19.20;;;5.90;;
19111;SDS011;9688;51.906;8.376;2023-12-20T08:33:30;22.30;;;5.93;;
19111;SDS011;9688;51.906;8.376;2023-12-20T08:36:16;16.43;;;5.37;;
19111;SDS011;9688;51.906;8.376;2023-12-20T08:39:02;20.03;;;4.83;;
19111;SDS011;9688;51.906;8.376;2023-12-20T08:41:51;20.80;;;5.37;;
19111;SDS011;9688;51.906;8.376;2023-12-20T08:44:38;15.93;;;5.80;;
19111;SDS011;9688;51.906;8.376;2023-12-20T08:47:24;17.70;;;5.43;;
19111;SDS011;9688;51.906;8.376;2023-12-20T08:50:11;15.67;;;6.10;;
19111;SDS011;9688;51.906;8.376;2023-12-20T08:52:59;18.70;;;5.57;;
19111;SDS011;9688;51.906;8.376;2023-12-20T08:55:46;17.70;;;5.70;;
19111;SDS011;9688;51.906;8.376;2023-12-20T08:58:36;20.17;;;5.63;;
19111;SDS011;9688;51.906;8.376;2023-12-20T09:01:23;17.40;;;6.20;;
19111;SDS011;9688;51.906;8.376;2023-12-20T09:04:09;17.80;;;6.10;;
19111;SDS011;9688;51.906;8.376;2023-12-20T09:06:55;16.17;;;6.10;;
19111;SDS011;9688;51.906;8.376;2023-12-20T09:09:41;17.83;;;6.33;;
19111;SDS011;9688;51.906;8.376;2023-12-20T09:12:27;23.10;;;6.50;;
19111;SDS011;9688;51.906;8.376;2023-12-20T09:15:13;21.07;;;7.20;;
19111;SDS011;9688;51.906;8.376;2023-12-20T09:18:02;17.10;;;6.97;;
19111;SDS011;9688;51.906;8.376;2023-12-20T09:20:48;23.27;;;7.47;;
19111;SDS011;9688;51.906;8.376;2023-12-20T09:23:34;22.93;;;8.13;;
19111;SDS011;9688;51.906;8.376;2023-12-20T09:26:21;19.43;;;8.13;;
19111;SDS011;9688;51.906;8.376;2023-12-20T09:29:06;25.40;;;8.27;;
19111;SDS011;9688;51.906;8.376;2023-12-20T09:31:53;30.33;;;7.73;;
19111;SDS011;9688;51.906;8.376;2023-12-20T09:34:41;20.27;;;6.90;;
19111;SDS011;9688;51.906;8.376;2023-12-20T09:37:27;13.77;;;7.03;;
19111;SDS011;9688;51.906;8.376;2023-12-20T09:40:13;14.80;;;6.23;;
19111;SDS011;9688;51.906;8.376;2023-12-20T09:43:02;21.00;;;7.27;;
19111;SDS011;9688;51.906;8.376;2023-12-20T09:45:49;20.73;;;8.43;;
19111;SDS011;9688;51.906;8.376;2023-12-20T09:48:39;20.30;;;6.43;;
19111;SDS011;9688;51.906;8.376;2023-12-20T09:51:29;19.70;;;7.53;;
19111;SDS011;9688;51.906;8.376;2023-12-20T09:54:17;20.00;;;6.70;;
19111;SDS011;9688;51.906;8.376;2023-12-20T09:57:04;17.40;;;7.07;;
19111;SDS011;9688;51.906;8.376;2023-12-20T09:59:50;26.83;;;6.70;;
19111;SDS011;9688;51.906;8.376;2023-12-20T10:02:36;28.17;;;7.13;;
19111;SDS011;9688;51.906;8.376;2023-12-20T10:05:27;21.20;;;6.13;;
19111;SDS011;9688;51.906;8.376;2023-12-20T10:08:16;18.23;;;6.67;;
19111;SDS011;9688;51.906;8.376;2023-12-20T10:11:01;19.90;;;5.97;;
19111;SDS011;9688;51.906;8.376;2023-12-20T10:13:48;21.80;;;5.73;;
19111;SDS011;9688;51.906;8.376;2023-12-20T10:16:34;20.43;;;5.37;;
19111;SDS011;9688;51.906;8.376;2023-12-20T10:19:19;19.13;;;5.17;;
19111;SDS011;9688;51.906;8.376;2023-12-20T10:22:05;16.67;;;6.00;;
19111;SDS011;9688;51.906;8.376;2023-12-20T10:24:52;17.63;;;5.80;;
19111;SDS011;9688;51.906;8.376;2023-12-20T10:27:38;19.23;;;5.70;;
19111;SDS011;9688;51.906;8.376;2023-12-20T10:30:24;18.73;;;5.67;;
19111;SDS011;9688;51.906;8.376;2023-12-20T10:33:10;14.70;;;4.67;;
19111;SDS011;9688;51.906;8.376;2023-12-20T10:35:55;21.33;;;5.43;;
19111;SDS011;9688;51.906;8.376;2023-12-20T10:38:43;27.40;;;4.93;;
19111;SDS011;9688;51.906;8.376;2023-12-20T10:41:32;21.03;;;5.40;;
19111;SDS011;9688;51.906;8.376;2023-12-20T10:44:19;18.80;;;4.70;;
19111;SDS011;9688;51.906;8.376;2023-12-20T10:47:05;23.93;;;6.13;;
19111;SDS011;9688;51.906;8.376;2023-12-20T10:49:52;19.93;;;4.97;;
19111;SDS011;9688;51.906;8.376;2023-12-20T10:52:38;20.47;;;5.07;;
19111;SDS011;9688;51.906;8.376;2023-12-20T10:55:25;35.03;;;6.03;;
19111;SDS011;9688;51.906;8.376;2023-12-20T10:58:13;17.03;;;6.07;;
19111;SDS011;9688;51.906;8.376;2023-12-20T11:01:01;23.20;;;5.33;;
19111;SDS011;9688;51.906;8.376;2023-12-20T11:03:50;21.10;;;4.73;;
19111;SDS011;9688;51.906;8.376;2023-12-20T11:06:40;18.93;;;5.83;;
19111;SDS011;9688;51.906;8.376;2023-12-20T11:09:36;25.73;;;5.53;;
19111;SDS011;9688;51.906;8.376;2023-12-20T11:12:32;29.57;;;5.83;;
19111;SDS011;9688;51.906;8.376;2023-12-20T11:15:24;20.97;;;6.47;;
19111;SDS011;9688;51.906;8.376;2023-12-20T11:18:11;16.30;;;4.60;;
19111;SDS011;9688;51.906;8.376;2023-12-20T11:21:00;20.17;;;6.30;;
19111;SDS011;9688;51.906;8.376;2023-12-20T11:23:49;15.60;;;5.33;;
19111;SDS011;9688;51.906;8.376;2023-12-20T11:26:35;20.43;;;5.77;;
19111;SDS011;9688;51.906;8.376;2023-12-20T11:29:30;16.70;;;6.27;;
19111;SDS011;9688;51.906;8.376;2023-12-20T11:32:32;11.07;;;4.20;;
19111;SDS011;9688;51.906;8.376;2023-12-20T11:35:20;13.00;;;4.50;;
19111;SDS011;9688;51.906;8.376;2023-12-20T11:38:08;13.70;;;3.83;;
19111;SDS011;9688;51.906;8.376;2023-12-20T11:40:54;12.07;;;3.80;;
19111;SDS011;9688;51.906;8.376;2023-12-20T11:43:42;16.83;;;4.30;;
19111;SDS011;9688;51.906;8.376;2023-12-20T11:46:28;13.37;;;4.37;;
19111;SDS011;9688;51.906;8.376;2023-12-20T11:49:15;10.03;;;4.17;;
19111;SDS011;9688;51.906;8.376;2023-12-20T11:52:01;15.57;;;4.23;;
19111;SDS011;9688;51.906;8.376;2023-12-20T11:54:47;15.93;;;3.73;;
19111;SDS011;9688;51.906;8.376;2023-12-20T11:57:33;20.03;;;3.90;;
19111;SDS011;9688;51.906;8.376;2023-12-20T12:00:19;10.10;;;3.40;;
19111;SDS011;9688;51.906;8.376;2023-12-20T12:03:05;14.13;;;3.73;;
19111;SDS011;9688;51.906;8.376;2023-12-20T12:05:53;8.13;;;3.10;;
19111;SDS011;9688;51.906;8.376;2023-12-20T12:08:38;13.30;;;3.87;;
19111;SDS011;9688;51.906;8.376;2023-12-20T12:11:24;12.60;;;3.47;;
19111;SDS011;9688;51.906;8.376;2023-12-20T12:14:10;10.40;;;3.83;;
19111;SDS011;9688;51.906;8.376;2023-12-20T12:16:57;11.33;;;3.30;;
19111;SDS011;9688;51.906;8.376;2023-12-20T12:19:44;13.00;;;3.10;;
19111;SDS011;9688;51.906;8.376;2023-12-20T12:22:34;10.47;;;3.47;;
19111;SDS011;9688;51.906;8.376;2023-12-20T12:25:20;12.57;;;3.63;;
19111;SDS011;9688;51.906;8.376;2023-12-20T12:28:07;9.83;;;2.80;;
19111;SDS011;9688;51.906;8.376;2023-12-20T12:30:57;12.47;;;3.47;;
19111;SDS011;9688;51.906;8.376;2023-12-20T12:33:43;10.30;;;3.37;;
19111;SDS011;9688;51.906;8.376;2023-12-20T12:36:29;13.63;;;3.63;;
19111;SDS011;9688;51.906;8.376;2023-12-20T12:39:18;12.90;;;3.40;;
19111;SDS011;9688;51.906;8.376;2023-12-20T12:42:04;15.30;;;3.80;;
19111;SDS011;9688;51.906;8.376;2023-12-20T12:44:50;11.57;;;3.43;;
19111;SDS011;9688;51.906;8.376;2023-12-20T12:47:37;15.93;;;3.60;;
19111;SDS011;9688;51.906;8.376;2023-12-20T12:50:23;13.23;;;3.87;;
19111;SDS011;9688;51.906;8.376;2023-12-20T12:53:10;16.23;;;3.60;;
19111;SDS011;9688;51.906;8.376;2023-12-20T12:55:57;13.10;;;4.13;;
19111;SDS011;9688;51.906;8.376;2023-12-20T12:58:43;15.77;;;3.60;;
19111;SDS011;9688;51.906;8.376;2023-12-20T13:01:29;14.80;;;4.33;;
19111;SDS011;9688;51.906;8.376;2023-12-20T13:04:15;13.07;;;4.03;;
19111;SDS011;9688;51.906;8.376;2023-12-20T13:07:01;12.53;;;3.60;;
19111;SDS011;9688;51.906;8.376;2023-12-20T13:09:49;16.30;;;4.00;;
19111;SDS011;9688;51.906;8.376;2023-12-20T13:12:36;11.63;;;3.73;;
19111;SDS011;9688;51.906;8.376;2023-12-20T13:15:23;16.47;;;3.97;;
19111;SDS011;9688;51.906;8.376;2023-12-20T13:18:09;13.33;;;3.30;;
19111;SDS011;9688;51.906;8.376;2023-12-20T13:20:56;15.40;;;3.57;;
19111;SDS011;9688;51.906;8.376;2023-12-20T13:23:42;11.07;;;3.27;;
19111;SDS011;9688;51.906;8.376;2023-12-20T13:26:29;15.13;;;4.00;;
19111;SDS011;9688;51.906;8.376;2023-12-20T13:29:17;13.63;;;3.33;;
19111;SDS011;9688;51.906;8.376;2023-12-20T13:32:03;10.43;;;2.40;;
19111;SDS011;9688;51.906;8.376;2023-12-20T13:34:49;9.17;;;2.00;;
19111;SDS011;9688;51.906;8.376;2023-12-20T13:37:35;5.17;;;1.63;;
19111;SDS011;9688;51.906;8.376;2023-12-20T13:40:21;3.97;;;1.50;;
19111;SDS011;9688;51.906;8.376;2023-12-20T13:43:08;6.47;;;1.90;;
19111;SDS011;9688;51.906;8.376;2023-12-20T13:45:55;5.03;;;1.73;;
19111;SDS011;9688;51.906;8.376;2023-12-20T13:48:41;4.07;;;1.40;;
19111;SDS011;9688;51.906;8.376;2023-12-20T13:51:27;5.73;;;1.83;;
19111;SDS011;9688;51.906;8.376;2023-12-20T13:54:14;3.67;;;1.30;;
19111;SDS011;9688;51.906;8.376;2023-12-20T13:57:04;5.27;;;1.43;;
19111;SDS011;9688;51.906;8.376;2023-12-20T13:59:50;3.40;;;1.30;;
19111;SDS011;9688;51.906;8.376;2023-12-20T14:02:38;2.67;;;1.37;;
19111;SDS011;9688;51.906;8.376;2023-12-20T14:05:23;2.10;;;1.17;;
19111;SDS011;9688;51.906;8.376;2023-12-20T14:08:13;4.80;;;2.47;;
19111;SDS011;9688;51.906;8.376;2023-12-20T14:11:15;5.27;;;1.57;;
19111;SDS011;9688;51.906;8.376;2023-12-20T14:14:01;6.50;;;1.60;;
19111;SDS011;9688;51.906;8.376;2023-12-20T14:16:52;3.23;;;1.80;;
19111;SDS011;9688;51.906;8.376;2023-12-20T14:19:48;1.83;;;1.47;;
19111;SDS011;9688;51.906;8.376;2023-12-20T14:22:35;5.90;;;1.27;;
19111;SDS011;9688;51.906;8.376;2023-12-20T14:25:22;2.30;;;1.60;;
19111;SDS011;9688;51.906;8.376;2023-12-20T14:32:05;6.07;;;2.00;;
19111;SDS011;9688;51.906;8.376;2023-12-20T14:34:54;4.27;;;1.93;;
19111;SDS011;9688;51.906;8.376;2023-12-20T14:37:40;6.67;;;1.80;;
19111;SDS011;9688;51.906;8.376;2023-12-20T14:40:27;7.80;;;2.80;;
19111;SDS011;9688;51.906;8.376;2023-12-20T14:43:13;5.80;;;2.00;;
19111;SDS011;9688;51.906;8.376;2023-12-20T14:46:00;6.73;;;2.30;;
19111;SDS011;9688;51.906;8.376;2023-12-20T14:48:46;6.07;;;2.80;;
19111;SDS011;9688;51.906;8.376;2023-12-20T14:51:35;6.37;;;2.27;;
19111;SDS011;9688;51.906;8.376;2023-12-20T14:54:21;4.93;;;1.57;;
19111;SDS011;9688;51.906;8.376;2023-12-20T14:57:07;2.93;;;1.77;;
19111;SDS011;9688;51.906;8.376;2023-12-20T14:59:53;3.83;;;1.70;;
19111;SDS011;9688;51.906;8.376;2023-12-20T15:02:39;3.87;;;1.70;;
19111;SDS011;9688;51.906;8.376;2023-12-20T15:05:25;8.30;;;2.13;;
19111;SDS011;9688;51.906;8.376;2023-12-20T15:08:13;5.27;;;1.90;;
19111;SDS011;9688;51.906;8.376;2023-12-20T15:10:59;4.77;;;2.63;;
19111;SDS011;9688;51.906;8.376;2023-12-20T15:13:45;6.27;;;1.97;;
19111;SDS011;9688;51.906;8.376;2023-12-20T15:16:39;8.37;;;2.70;;
19111;SDS011;9688;51.906;8.376;2023-12-20T15:19:26;10.53;;;3.93;;
19111;SDS011;9688;51.906;8.376;2023-12-20T15:22:12;5.80;;;3.00;;
19111;SDS011;9688;51.906;8.376;2023-12-20T15:24:59;4.93;;;2.50;;
19111;SDS011;9688;51.906;8.376;2023-12-20T15:27:45;8.20;;;2.43;;
19111;SDS011;9688;51.906;8.376;2023-12-20T15:30:33;12.13;;;4.40;;
19111;SDS011;9688;51.906;8.376;2023-12-20T15:33:20;7.03;;;2.50;;
19111;SDS011;9688;51.906;8.376;2023-12-20T15:36:06;7.07;;;3.10;;
19111;SDS011;9688;51.906;8.376;2023-12-20T15:38:53;17.07;;;4.23;;
19111;SDS011;9688;51.906;8.376;2023-12-20T15:41:40;15.40;;;5.10;;
19111;SDS011;9688;51.906;8.376;2023-12-20T15:44:32;17.43;;;6.27;;
19111;SDS011;9688;51.906;8.376;2023-12-20T15:47:18;17.83;;;6.37;;
19111;SDS011;9688;51.906;8.376;2023-12-20T15:50:05;13.93;;;5.50;;
19111;SDS011;9688;51.906;8.376;2023-12-20T15:52:52;15.60;;;5.43;;
19111;SDS011;9688;51.906;8.376;2023-12-20T15:55:38;14.60;;;5.13;;
19111;SDS011;9688;51.906;8.376;2023-12-20T15:58:25;21.13;;;5.80;;
19111;SDS011;9688;51.906;8.376;2023-12-20T16:01:14;17.90;;;6.13;;
19111;SDS011;9688;51.906;8.376;2023-12-20T16:04:00;13.93;;;6.20;;
19111;SDS011;9688;51.906;8.376;2023-12-20T16:06:46;24.77;;;6.17;;
19111;SDS011;9688;51.906;8.376;2023-12-20T16:09:32;16.33;;;5.93;;
19111;SDS011;9688;51.906;8.376;2023-12-20T16:12:18;16.43;;;5.83;;
19111;SDS011;9688;51.906;8.376;2023-12-20T16:15:06;13.47;;;5.97;;
19111;SDS011;9688;51.906;8.376;2023-12-20T16:17:53;19.70;;;5.70;;
19111;SDS011;9688;51.906;8.376;2023-12-20T16:20:39;14.57;;;6.10;;
19111;SDS011;9688;51.906;8.376;2023-12-20T16:23:25;18.03;;;6.27;;
19111;SDS011;9688;51.906;8.376;2023-12-20T16:26:11;18.27;;;6.67;;
19111;SDS011;9688;51.906;8.376;2023-12-20T16:28:57;17.87;;;7.03;;
19111;SDS011;9688;51.906;8.376;2023-12-20T16:31:44;14.53;;;6.67;;
19111;SDS011;9688;51.906;8.376;2023-12-20T16:34:30;17.30;;;7.00;;
19111;SDS011;9688;51.906;8.376;2023-12-20T16:37:16;20.17;;;7.67;;
19111;SDS011;9688;51.906;8.376;2023-12-20T16:40:02;18.30;;;7.17;;
19111;SDS011;9688;51.906;8.376;2023-12-20T16:42:49;16.47;;;7.13;;
19111;SDS011;9688;51.906;8.376;2023-12-20T16:45:35;17.70;;;8.23;;
19111;SDS011;9688;51.906;8.376;2023-12-20T16:48:23;18.17;;;7.67;;
19111;SDS011;9688;51.906;8.376;2023-12-20T16:51:10;20.23;;;7.87;;